Time;durP1;ratioP1;P1;durP2;ratioP2;P2;SDS_P1;SDS_P2;PMS_P1;PMS_P2;Temp;Humidity;BMP_temperature;BMP_pressure;BME280_temperature;BME280_humidity;BME280_pressure;Samples;Min_cycle;Max_cycle;Signal;HPM_P1;HPM_P2
2022/01/27 00:07:37;;;;;;;29.70;17.17;;;7.60;81.60;;;;;;6007196;23;92942;-66
2022/01/27 00:10:22;;;;;;;43.35;21.48;;;7.60;81.10;;;;;;5981937;23;92424;-67
2022/01/27 00:12:52;;;;;;;39.42;22.58;;;7.70;81.70;;;;;;6008289;23;91630;-67
2022/01/27 00:15:27;;;;;;;37.20;21.55;;;7.60;81.60;;;;;;5981642;23;94022;-67
2022/01/27 00:17:59;;;;;;;43.97;23.15;;;7.70;81.20;;;;;;5981912;23;95138;-67
2022/01/27 00:20:26;;;;;;;36.85;21.02;;;7.70;81.50;;;;;;6005940;23;94922;-67
2022/01/27 00:22:54;;;;;;;37.03;21.25;;;7.70;81.40;;;;;;6007711;23;92384;-67
2022/01/27 00:25:21;;;;;;;38.60;22.35;;;7.70;81.20;;;;;;6007062;23;93151;-67
2022/01/27 00:27:48;;;;;;;35.58;21.00;;;7.70;81.30;;;;;;5981794;23;94201;-67
2022/01/27 00:30:15;;;;;;;36.15;21.77;;;7.70;81.70;;;;;;5981925;23;94300;-67
2022/01/27 00:32:42;;;;;;;38.53;20.90;;;7.70;81.20;;;;;;6007659;23;92417;-67
2022/01/27 00:35:09;;;;;;;34.05;19.55;;;7.70;81.20;;;;;;5982346;23;93038;-67
2022/01/27 00:37:36;;;;;;;39.80;21.08;;;7.70;81.30;;;;;;6007876;23;92885;-67
2022/01/27 00:40:05;;;;;;;36.15;20.52;;;7.70;81.20;;;;;;6007238;23;92699;-67
2022/01/27 00:42:33;;;;;;;37.65;19.95;;;7.70;81.20;;;;;;6007368;23;92927;-67
2022/01/27 00:45:00;;;;;;;39.47;21.63;;;7.70;81.40;;;;;;6005800;23;95467;-67
2022/01/27 00:47:27;;;;;;;39.53;21.42;;;7.70;81.50;;;;;;6007058;23;95311;-67
2022/01/27 00:49:54;;;;;;;38.97;21.00;;;7.80;81.00;;;;;;6007573;23;92436;-67
2022/01/27 00:52:28;;;;;;;32.92;19.73;;;7.70;81.40;;;;;;6007254;23;92461;-66
2022/01/27 00:54:55;;;;;;;25.85;15.65;;;7.70;81.10;;;;;;5981803;23;94112;-67
2022/01/27 00:57:48;;;;;;;37.63;20.55;;;7.70;81.40;;;;;;6006597;23;92926;-67
2022/01/27 01:00:21;;;;;;;36.90;20.40;;;7.70;81.40;;;;;;6003769;23;92456;-67
2022/01/27 01:02:58;;;;;;;37.22;20.60;;;7.80;81.10;;;;;;5982558;23;92127;-67
2022/01/27 01:16:02;;;;;;;29.83;18.25;;;7.70;81.00;;;;;;6007273;23;92928;-67
2022/01/27 01:18:50;;;;;;;34.97;18.77;;;7.70;81.20;;;;;;6006189;23;108395;-67
2022/01/27 01:34:30;;;;;;;36.25;19.25;;;7.70;80.60;;;;;;6007272;23;92872;-66
2022/01/27 01:37:01;;;;;;;35.33;18.98;;;7.70;80.50;;;;;;6004993;23;105466;-67
2022/01/27 01:39:31;;;;;;;31.25;18.83;;;7.70;80.80;;;;;;6006596;23;95404;-67
2022/01/27 01:42:00;;;;;;;31.33;18.73;;;7.70;80.50;;;;;;6007023;23;92253;-67
2022/01/27 01:44:27;;;;;;;31.30;18.08;;;7.70;80.80;;;;;;5980627;23;100773;-67
2022/01/27 01:46:55;;;;;;;34.65;18.33;;;7.70;80.80;;;;;;6006829;23;93252;-67
2022/01/27 01:49:26;;;;;;;33.92;20.10;;;7.70;81.00;;;;;;6006829;23;93100;-67
2022/01/27 01:51:54;;;;;;;37.78;19.27;;;7.70;80.40;;;;;;5981448;23;92405;-67
2022/01/27 01:54:21;;;;;;;35.85;18.92;;;7.70;80.50;;;;;;5981690;23;91721;-67
2022/01/27 01:56:49;;;;;;;30.95;20.33;;;7.70;80.70;;;;;;6006557;23;92936;-67
2022/01/27 01:59:16;;;;;;;33.10;17.20;;;7.70;80.80;;;;;;6004420;23;92838;-67
2022/01/27 02:01:43;;;;;;;29.15;17.95;;;7.70;80.70;;;;;;6001289;23;94765;-68
2022/01/27 02:04:11;;;;;;;31.70;17.92;;;7.70;80.90;;;;;;6006972;23;92437;-67
2022/01/27 02:06:46;;;;;;;32.88;18.55;;;7.70;81.10;;;;;;6006594;23;93018;-67
2022/01/27 02:18:00;;;;;;;33.58;17.58;;;7.60;81.50;;;;;;5946572;23;94242;-67
2022/01/27 02:20:29;;;;;;;33.72;18.60;;;7.60;81.20;;;;;;5947736;23;92695;-67
2022/01/27 02:22:56;;;;;;;29.63;16.52;;;7.70;80.80;;;;;;5956838;23;92571;-67
2022/01/27 02:25:24;;;;;;;34.30;17.85;;;7.70;80.80;;;;;;6007768;23;92445;-67
2022/01/27 02:27:53;;;;;;;35.10;19.45;;;7.70;80.80;;;;;;6005965;23;95488;-67
2022/01/27 02:30:22;;;;;;;29.88;17.90;;;7.70;81.40;;;;;;6007636;23;95731;-67
2022/01/27 02:32:52;;;;;;;33.70;18.75;;;7.70;80.70;;;;;;6007653;23;92323;-67
2022/01/27 02:35:24;;;;;;;33.88;18.73;;;7.70;81.20;;;;;;6007926;23;92471;-67
2022/01/27 02:37:52;;;;;;;31.88;20.60;;;7.80;80.70;;;;;;6007696;23;92986;-67
2022/01/27 02:40:34;;;;;;;31.63;17.80;;;7.80;80.40;;;;;;6007718;23;92705;-67
2022/01/27 02:43:03;;;;;;;28.88;19.02;;;7.70;80.20;;;;;;6007977;23;92305;-67
2022/01/27 02:45:51;;;;;;;32.97;18.77;;;7.70;80.20;;;;;;6008331;23;91783;-67
2022/01/27 02:48:20;;;;;;;32.40;18.92;;;7.70;80.80;;;;;;6007799;23;92899;-67
2022/01/27 02:50:47;;;;;;;36.75;19.45;;;7.70;80.90;;;;;;6007518;23;92825;-67
2022/01/27 02:53:13;;;;;;;37.63;19.67;;;7.70;81.00;;;;;;6006430;23;94798;-67
2022/01/27 02:55:41;;;;;;;31.30;20.20;;;7.70;80.50;;;;;;6007559;23;92412;-66
2022/01/27 02:58:09;;;;;;;37.30;19.90;;;7.70;80.80;;;;;;6007437;23;94037;-67
2022/01/27 03:00:37;;;;;;;35.25;19.85;;;7.70;80.60;;;;;;6006990;23;93927;-66
2022/01/27 03:03:04;;;;;;;32.53;20.45;;;7.70;80.90;;;;;;6007666;23;92441;-67
2022/01/27 03:05:31;;;;;;;32.78;19.77;;;7.70;80.90;;;;;;5982459;23;92845;-66
2022/01/27 03:08:00;;;;;;;31.17;17.92;;;7.70;80.70;;;;;;6007371;23;92929;-67
2022/01/27 03:10:30;;;;;;;32.72;20.67;;;7.80;80.50;;;;;;5981874;23;108706;-67
2022/01/27 03:12:59;;;;;;;33.75;20.55;;;7.80;81.10;;;;;;6007644;23;92417;-67
2022/01/27 03:15:28;;;;;;;33.45;19.20;;;7.80;80.10;;;;;;6007946;23;92424;-67
2022/01/27 03:17:55;;;;;;;31.20;19.58;;;7.80;80.00;;;;;;5980161;23;98196;-66
2022/01/27 03:20:23;;;;;;;35.70;20.65;;;7.80;80.30;;;;;;6007344;23;96373;-67
2022/01/27 03:22:50;;;;;;;32.63;18.42;;;7.80;80.20;;;;;;6007705;23;92314;-67
2022/01/27 03:25:17;;;;;;;32.08;17.80;;;7.80;79.60;;;;;;6007796;23;92404;-67
2022/01/27 03:27:47;;;;;;;31.75;18.95;;;7.70;80.40;;;;;;5982090;23;93059;-66
2022/01/27 03:30:16;;;;;;;35.75;21.05;;;7.80;80.30;;;;;;6008055;23;92907;-66
2022/01/27 03:32:44;;;;;;;35.78;20.92;;;7.80;80.00;;;;;;5981355;23;92460;-66
2022/01/27 03:35:11;;;;;;;34.25;19.80;;;7.80;80.50;;;;;;6008069;23;91652;-67
2022/01/27 03:37:38;;;;;;;36.40;19.60;;;7.80;80.10;;;;;;5981976;23;94083;-67
2022/01/27 03:40:07;;;;;;;29.23;18.08;;;7.80;80.40;;;;;;6007453;23;92781;-66
2022/01/27 03:42:42;;;;;;;35.55;19.42;;;7.80;80.40;;;;;;6006133;23;95040;-67
2022/01/27 03:45:10;;;;;;;35.53;21.25;;;7.80;80.70;;;;;;6008133;23;92804;-67
2022/01/27 03:47:37;;;;;;;35.75;19.75;;;7.80;81.20;;;;;;6007227;23;98443;-66
2022/01/27 03:50:04;;;;;;;36.40;21.33;;;7.80;81.30;;;;;;5981514;23;94659;-67
2022/01/27 03:52:31;;;;;;;34.63;20.40;;;7.70;80.90;;;;;;5982024;23;92723;-67
2022/01/27 03:54:58;;;;;;;37.47;21.83;;;7.70;80.70;;;;;;6007434;23;92462;-67
2022/01/27 03:57:25;;;;;;;35.30;20.23;;;7.80;81.00;;;;;;5981171;23;108559;-67
2022/01/27 03:59:52;;;;;;;34.33;20.75;;;7.80;80.60;;;;;;6006808;23;92855;-67
2022/01/27 04:02:19;;;;;;;33.47;20.13;;;7.80;81.10;;;;;;6007574;23;92751;-67
2022/01/27 04:04:46;;;;;;;36.67;20.70;;;7.80;80.50;;;;;;6007060;23;92445;-67
2022/01/27 04:07:13;;;;;;;35.53;19.95;;;7.80;80.50;;;;;;6005198;23;95471;-67
2022/01/27 04:09:40;;;;;;;32.63;18.55;;;7.80;80.20;;;;;;6006990;23;96448;-67
2022/01/27 04:12:07;;;;;;;34.13;21.38;;;7.70;80.40;;;;;;6007369;23;92894;-67
2022/01/27 04:14:34;;;;;;;38.90;23.08;;;7.80;80.70;;;;;;6007663;23;92397;-67
2022/01/27 04:17:01;;;;;;;31.92;19.85;;;7.70;80.70;;;;;;6006869;23;97434;-67
2022/01/27 04:19:28;;;;;;;33.40;18.83;;;7.70;80.90;;;;;;6007330;23;92332;-67
2022/01/27 04:21:55;;;;;;;39.30;23.80;;;7.70;81.00;;;;;;5981828;23;92435;-66
2022/01/27 04:24:22;;;;;;;33.75;18.90;;;7.70;81.10;;;;;;6007954;23;91674;-67
2022/01/27 04:26:57;;;;;;;39.17;22.92;;;7.70;80.60;;;;;;5981694;23;95041;-66
2022/01/27 04:29:25;;;;;;;40.25;23.05;;;7.70;81.40;;;;;;6007288;23;92822;-67
2022/01/27 04:31:52;;;;;;;38.00;20.55;;;7.70;81.20;;;;;;6005836;23;94724;-66
2022/01/27 04:34:20;;;;;;;38.85;20.52;;;7.70;81.40;;;;;;6007655;23;92355;-67
2022/01/27 04:36:47;;;;;;;35.13;19.52;;;7.70;80.80;;;;;;6007325;23;92990;-67
2022/01/27 04:39:33;;;;;;;40.13;21.02;;;7.80;81.30;;;;;;5981842;23;93920;-67
2022/01/27 04:42:11;;;;;;;36.00;19.52;;;7.70;81.10;;;;;;6007072;23;92295;-67
2022/01/27 04:44:51;;;;;;;37.90;21.20;;;7.70;81.20;;;;;;5981660;23;92361;-67
2022/01/27 04:47:26;;;;;;;37.35;20.10;;;7.80;80.80;;;;;;5984736;23;93963;-67
2022/01/27 04:49:53;;;;;;;34.58;21.08;;;7.80;80.90;;;;;;6007363;23;92735;-67
2022/01/27 04:52:20;;;;;;;34.83;20.15;;;7.80;81.20;;;;;;6007375;23;92330;-67
2022/01/27 04:55:02;;;;;;;35.08;19.88;;;7.80;81.00;;;;;;5981793;23;92436;-67
2022/01/27 04:57:30;;;;;;;34.75;20.27;;;7.70;81.10;;;;;;5980142;23;96435;-67
2022/01/27 04:59:57;;;;;;;36.45;19.95;;;7.70;81.10;;;;;;6006196;23;95318;-67
2022/01/27 05:02:38;;;;;;;34.75;20.92;;;7.70;81.60;;;;;;6007302;23;92343;-67
2022/01/27 05:05:05;;;;;;;43.70;21.92;;;7.80;82.10;;;;;;6007186;23;92360;-67
2022/01/27 05:07:54;;;;;;;36.55;20.73;;;7.80;81.00;;;;;;5984952;23;92964;-67
2022/01/27 05:10:25;;;;;;;33.17;18.50;;;7.80;81.40;;;;;;6007182;23;92420;-67
2022/01/27 05:12:55;;;;;;;37.10;21.02;;;7.80;81.50;;;;;;5982046;23;92306;-67
2022/01/27 05:15:23;;;;;;;39.58;21.80;;;7.80;81.70;;;;;;6007751;23;91630;-67
2022/01/27 05:17:51;;;;;;;37.42;22.35;;;7.80;81.80;;;;;;6007122;23;92966;-67
2022/01/27 05:20:18;;;;;;;33.83;20.42;;;7.80;82.40;;;;;;5982504;23;92936;-67
2022/01/27 05:22:45;;;;;;;40.83;21.00;;;7.80;82.70;;;;;;6005938;23;95104;-67
2022/01/27 05:25:12;;;;;;;36.25;18.67;;;7.80;82.30;;;;;;6007012;23;92389;-67
2022/01/27 05:27:38;;;;;;;36.65;19.20;;;7.80;81.80;;;;;;5981726;23;92990;-67
2022/01/27 05:30:06;;;;;;;33.53;20.00;;;7.80;81.50;;;;;;6006771;23;92815;-67
2022/01/27 05:32:36;;;;;;;36.58;18.73;;;7.80;82.30;;;;;;6007248;23;92338;-67
2022/01/27 05:35:04;;;;;;;36.45;18.23;;;7.80;82.20;;;;;;5981507;23;92370;-67
2022/01/27 05:37:30;;;;;;;40.42;21.00;;;7.80;82.20;;;;;;6006209;23;108661;-67
2022/01/27 05:39:57;;;;;;;32.45;16.77;;;7.80;82.80;;;;;;6006784;23;94046;-67
2022/01/27 05:42:24;;;;;;;36.33;19.48;;;7.80;82.80;;;;;;6006926;23;92362;-67
2022/01/27 05:44:51;;;;;;;37.95;20.17;;;7.80;84.20;;;;;;6006947;23;92421;-67
2022/01/27 05:47:18;;;;;;;44.13;21.80;;;7.80;84.70;;;;;;6005037;23;95414;-66
2022/01/27 05:49:45;;;;;;;36.78;19.50;;;7.80;85.20;;;;;;6006666;23;95238;-67
2022/01/27 05:52:12;;;;;;;39.40;20.63;;;7.80;85.30;;;;;;6006707;23;93192;-67
2022/01/27 05:54:39;;;;;;;42.17;20.63;;;7.80;86.20;;;;;;6006573;23;92453;-67
2022/01/27 05:57:06;;;;;;;48.38;23.83;;;7.70;86.60;;;;;;6003973;23;94298;-67
2022/01/27 05:59:33;;;;;;;41.70;20.95;;;7.70;86.70;;;;;;6006841;23;92715;-67
2022/01/27 06:02:00;;;;;;;41.20;20.63;;;7.70;86.90;;;;;;6002657;23;92821;-67
2022/01/27 06:04:27;;;;;;;38.28;20.35;;;7.70;86.80;;;;;;6007282;23;91703;-67
2022/01/27 06:06:54;;;;;;;45.58;22.20;;;7.70;87.30;;;;;;6006464;23;103133;-67
2022/01/27 06:09:21;;;;;;;44.28;22.45;;;7.70;87.30;;;;;;5981329;23;92892;-66
2022/01/27 06:11:48;;;;;;;46.00;21.33;;;7.70;87.40;;;;;;5979793;23;94865;-66
2022/01/27 06:14:15;;;;;;;44.92;24.80;;;7.70;87.80;;;;;;6006548;23;92470;-66
2022/01/27 06:16:45;;;;;;;51.25;23.73;;;7.60;88.10;;;;;;6006552;23;93119;-66
2022/01/27 06:19:13;;;;;;;47.00;22.77;;;7.60;88.40;;;;;;6006399;23;92747;-67
2022/01/27 06:21:42;;;;;;;51.38;24.63;;;7.60;88.90;;;;;;6006803;23;92370;-66
2022/01/27 06:24:09;;;;;;;46.88;21.67;;;7.60;88.80;;;;;;6006495;23;92422;-66
2022/01/27 06:26:36;;;;;;;47.83;22.65;;;7.60;89.40;;;;;;6006544;23;92897;-67
2022/01/27 06:29:03;;;;;;;46.20;21.65;;;7.60;89.40;;;;;;6006637;23;92934;-66
2022/01/27 06:31:30;;;;;;;48.33;21.77;;;7.60;89.10;;;;;;6006795;23;92521;-66
2022/01/27 06:33:57;;;;;;;48.03;21.92;;;7.60;88.90;;;;;;6006745;23;92396;-67
2022/01/27 06:36:24;;;;;;;39.55;20.02;;;7.60;89.00;;;;;;6004253;23;105095;-66
2022/01/27 06:38:54;;;;;;;48.95;22.58;;;7.60;89.40;;;;;;6006246;23;95269;-67
2022/01/27 06:41:21;;;;;;;43.33;19.63;;;7.60;89.70;;;;;;6006400;23;92326;-67
2022/01/27 06:43:48;;;;;;;43.70;20.17;;;7.60;89.90;;;;;;6006354;23;92465;-67
2022/01/27 06:46:15;;;;;;;37.63;20.02;;;7.60;89.90;;;;;;6006045;23;93166;-66
2022/01/27 06:48:42;;;;;;;36.33;18.58;;;7.60;90.10;;;;;;5980721;23;95055;-67
2022/01/27 06:51:09;;;;;;;40.53;20.45;;;7.60;90.10;;;;;;5980643;23;92461;-67
2022/01/27 06:53:36;;;;;;;40.95;20.67;;;7.60;90.10;;;;;;6006995;23;91737;-67
2022/01/27 06:56:03;;;;;;;41.28;20.40;;;7.70;90.10;;;;;;6006284;23;93006;-67
2022/01/27 06:58:31;;;;;;;37.53;19.48;;;7.70;90.00;;;;;;6006137;23;93404;-67
2022/01/27 07:00:58;;;;;;;31.88;15.88;;;7.70;89.80;;;;;;5987472;23;94834;-67
2022/01/27 07:03:25;;;;;;;31.73;15.82;;;7.70;89.50;;;;;;6006220;23;92411;-67
2022/01/27 07:05:52;;;;;;;31.92;17.10;;;7.70;89.70;;;;;;6006096;23;92898;-67
2022/01/27 07:08:19;;;;;;;26.98;15.55;;;7.70;89.70;;;;;;6004593;23;92692;-66
2022/01/27 07:10:46;;;;;;;31.98;17.15;;;7.70;89.50;;;;;;6007467;23;99676;-67
2022/01/27 07:13:14;;;;;;;33.95;16.55;;;7.80;89.80;;;;;;6006046;23;92897;-67
2022/01/27 07:15:41;;;;;;;27.02;15.63;;;7.80;89.60;;;;;;6007512;23;93593;-67
2022/01/27 07:18:08;;;;;;;27.15;15.75;;;7.80;89.40;;;;;;6008088;23;92814;-67
2022/01/27 07:20:36;;;;;;;29.42;15.63;;;7.80;89.20;;;;;;6008015;23;92524;-67
2022/01/27 07:23:05;;;;;;;26.80;15.35;;;7.80;89.60;;;;;;6005879;23;92884;-67
2022/01/27 07:25:32;;;;;;;26.15;14.00;;;7.90;89.20;;;;;;6005985;23;95282;-67
2022/01/27 07:27:59;;;;;;;27.30;15.60;;;7.90;89.20;;;;;;6007488;23;95181;-67
2022/01/27 07:30:26;;;;;;;27.40;14.32;;;7.90;89.50;;;;;;6005329;23;99026;-67
2022/01/27 07:32:53;;;;;;;25.00;15.32;;;7.90;89.30;;;;;;6007663;23;92405;-67
2022/01/27 07:35:20;;;;;;;28.92;14.73;;;7.90;89.40;;;;;;6007200;23;93082;-67
2022/01/27 07:37:47;;;;;;;30.95;14.95;;;8.00;89.00;;;;;;6007548;23;92799;-67
2022/01/27 07:40:14;;;;;;;20.02;12.35;;;8.10;89.00;;;;;;6007495;23;92300;-67
2022/01/27 07:42:41;;;;;;;20.38;11.35;;;8.10;88.80;;;;;;6007930;23;91677;-67
2022/01/27 07:45:09;;;;;;;20.50;13.05;;;8.10;88.70;;;;;;6005647;23;94268;-67
2022/01/27 07:47:36;;;;;;;24.65;13.43;;;8.20;88.80;;;;;;6005663;23;92890;-67
2022/01/27 07:50:05;;;;;;;20.27;11.70;;;8.20;88.80;;;;;;6006068;23;94743;-67
2022/01/27 07:52:32;;;;;;;21.02;11.18;;;8.20;88.80;;;;;;6007289;23;92410;-67
2022/01/27 07:54:59;;;;;;;19.45;12.27;;;8.30;88.70;;;;;;6007388;23;93019;-67
2022/01/27 07:57:27;;;;;;;16.70;11.00;;;8.30;89.40;;;;;;6007181;23;92789;-68
2022/01/27 07:59:53;;;;;;;19.85;11.55;;;8.30;88.90;;;;;;6007148;23;92345;-67
2022/01/27 08:02:20;;;;;;;15.57;10.07;;;8.40;88.70;;;;;;6007188;23;92355;-67
2022/01/27 08:04:47;;;;;;;16.08;9.65;;;8.40;88.80;;;;;;5981774;23;95849;-67
2022/01/27 08:07:14;;;;;;;15.63;9.02;;;8.40;88.60;;;;;;6008271;23;93900;-68
2022/01/27 08:09:41;;;;;;;14.30;9.13;;;8.40;88.80;;;;;;6008567;23;92327;-68
2022/01/27 08:12:08;;;;;;;10.82;8.40;;;8.40;89.20;;;;;;6008274;23;92403;-68
2022/01/27 08:14:35;;;;;;;12.98;8.02;;;8.50;89.10;;;;;;6006266;23;95342;-67
2022/01/27 08:17:02;;;;;;;13.10;7.82;;;8.50;89.20;;;;;;5982746;23;95052;-67
2022/01/27 08:19:29;;;;;;;12.82;9.00;;;8.50;89.20;;;;;;6007786;23;92372;-68
2022/01/27 08:21:56;;;;;;;11.95;8.30;;;8.50;89.30;;;;;;6008313;23;92362;-68
2022/01/27 08:24:23;;;;;;;13.32;8.90;;;8.50;89.20;;;;;;5981873;23;94251;-68
2022/01/27 08:26:57;;;;;;;15.80;8.70;;;8.50;89.40;;;;;;6008261;23;92853;-68
2022/01/27 08:29:31;;;;;;;19.83;10.80;;;8.60;89.40;;;;;;6008021;23;92287;-68
2022/01/27 08:32:29;;;;;;;18.42;9.35;;;8.60;89.10;;;;;;6008067;23;91645;-71
2022/01/27 08:34:56;;;;;;;18.25;9.95;;;8.60;89.20;;;;;;6007938;23;93201;-72
2022/01/27 08:37:23;;;;;;;21.70;11.35;;;8.70;89.30;;;;;;5981834;23;97667;-72
2022/01/27 08:39:50;;;;;;;21.23;10.82;;;8.70;89.50;;;;;;6006319;23;95224;-72
2022/01/27 08:42:16;;;;;;;27.23;11.20;;;8.70;89.20;;;;;;6007554;23;92465;-72
2022/01/27 08:44:45;;;;;;;24.30;11.23;;;8.80;89.20;;;;;;6007040;23;93087;-72
2022/01/27 08:47:12;;;;;;;25.00;10.98;;;8.90;89.30;;;;;;6007293;23;92763;-72
2022/01/27 08:49:42;;;;;;;21.23;11.85;;;8.90;89.40;;;;;;6007395;23;92422;-72
2022/01/27 08:52:09;;;;;;;20.52;12.15;;;8.90;89.20;;;;;;6007498;23;92447;-72
2022/01/27 08:54:35;;;;;;;26.60;10.63;;;9.00;88.90;;;;;;6006608;23;92671;-72
2022/01/27 08:57:02;;;;;;;21.10;11.25;;;9.10;88.90;;;;;;6007757;23;92743;-72
2022/01/27 08:59:30;;;;;;;25.00;10.73;;;9.10;88.80;;;;;;6007035;23;92363;-72
2022/01/27 09:01:57;;;;;;;18.95;10.68;;;9.20;88.50;;;;;;6003652;23;92676;-72
2022/01/27 09:04:23;;;;;;;23.67;10.30;;;9.20;88.30;;;;;;5979675;23;96403;-72
2022/01/27 09:06:50;;;;;;;23.45;9.93;;;9.30;88.20;;;;;;6007053;23;95072;-72
2022/01/27 09:09:17;;;;;;;20.92;10.60;;;9.30;88.30;;;;;;6008023;23;92406;-72
2022/01/27 09:11:46;;;;;;;16.00;8.93;;;9.40;88.30;;;;;;6007255;23;92816;-72
2022/01/27 09:14:14;;;;;;;16.15;8.93;;;9.40;88.10;;;;;;6007453;23;92322;-72
2022/01/27 09:16:42;;;;;;;19.75;9.68;;;9.40;88.10;;;;;;6007534;23;93119;-72
2022/01/27 09:19:12;;;;;;;22.23;9.27;;;9.40;88.10;;;;;;5982564;23;92388;-72
2022/01/27 09:21:48;;;;;;;23.80;9.60;;;9.50;88.10;;;;;;5982338;23;92126;-72
2022/01/27 09:24:37;;;;;;;16.77;8.13;;;9.60;87.80;;;;;;5982231;23;94292;-72
2022/01/27 09:27:04;;;;;;;16.65;8.32;;;9.60;87.70;;;;;;6007570;23;93032;-72
2022/01/27 09:29:31;;;;;;;17.05;8.93;;;9.60;87.40;;;;;;5980830;23;94755;-72
2022/01/27 09:32:02;;;;;;;20.55;8.57;;;9.70;87.60;;;;;;5981514;23;92308;-72
2022/01/27 09:34:29;;;;;;;21.02;7.95;;;9.70;87.40;;;;;;6007467;23;93009;-72
2022/01/27 09:36:57;;;;;;;22.77;9.10;;;9.70;87.50;;;;;;5981275;23;108514;-72
2022/01/27 09:39:25;;;;;;;23.60;8.45;;;9.80;87.50;;;;;;6007558;23;92440;-72
2022/01/27 09:41:56;;;;;;;22.38;8.10;;;9.80;87.40;;;;;;5981851;23;92475;-72
2022/01/27 09:44:28;;;;;;;18.73;8.07;;;9.80;87.10;;;;;;6007378;23;92324;-72
2022/01/27 09:46:58;;;;;;;20.60;7.93;;;9.80;87.40;;;;;;6008134;23;92809;-72
2022/01/27 09:50:23;;;;;;;15.70;6.65;;;9.80;87.00;;;;;;5982425;23;92402;-72
2022/01/27 09:52:16;;;;;;;16.40;7.38;;;9.90;86.80;;;;;;5993805;23;92451;-72
2022/01/27 09:54:45;;;;;;;18.73;7.10;;;9.90;86.90;;;;;;6005552;23;95272;-72
2022/01/27 09:57:16;;;;;;;15.18;7.45;;;10.00;86.60;;;;;;6007204;23;95412;-72
2022/01/27 09:59:45;;;;;;;18.60;6.38;;;10.10;86.40;;;;;;6007500;23;92348;-72
2022/01/27 10:02:21;;;;;;;17.52;6.85;;;10.10;86.30;;;;;;6007164;23;92452;-72
2022/01/27 10:04:51;;;;;;;18.08;5.85;;;10.10;86.00;;;;;;6007053;23;92872;-72
2022/01/27 10:07:27;;;;;;;16.30;5.95;;;10.10;86.70;;;;;;6007339;23;92870;-72
2022/01/27 10:09:56;;;;;;;12.80;5.28;;;10.10;86.30;;;;;;5981685;23;92429;-72
2022/01/27 10:12:29;;;;;;;15.70;6.07;;;10.20;86.00;;;;;;6007992;23;91685;-72
2022/01/27 10:15:13;;;;;;;11.68;5.07;;;10.30;85.60;;;;;;6007158;23;92978;-72
2022/01/27 10:18:15;;;;;;;11.85;4.97;;;10.40;85.50;;;;;;6007022;23;92736;-72
2022/01/27 10:21:04;;;;;;;14.15;5.03;;;10.40;85.20;;;;;;6005950;23;95453;-72
2022/01/27 10:23:33;;;;;;;19.48;5.60;;;10.50;84.80;;;;;;6007186;23;92304;-72
2022/01/27 10:26:22;;;;;;;14.80;4.63;;;10.60;84.70;;;;;;6006813;23;94265;-72
2022/01/27 10:29:06;;;;;;;18.08;5.70;;;10.70;84.50;;;;;;5957573;23;93909;-72
2022/01/27 10:31:38;;;;;;;14.25;4.88;;;10.70;84.30;;;;;;6007382;23;92325;-72
2022/01/27 10:34:07;;;;;;;18.95;5.70;;;10.70;83.80;;;;;;6007439;23;92398;-72
2022/01/27 10:36:39;;;;;;;10.38;3.78;;;10.80;84.20;;;;;;6007075;23;93152;-72
2022/01/27 10:39:08;;;;;;;14.93;4.70;;;10.80;83.60;;;;;;6007657;23;92734;-72
2022/01/27 10:41:56;;;;;;;11.95;4.70;;;10.80;83.50;;;;;;6007338;23;92834;-72
2022/01/27 10:44:56;;;;;;;20.63;5.03;;;10.90;83.60;;;;;;5982800;23;92907;-72
2022/01/27 10:47:30;;;;;;;14.75;4.55;;;10.90;83.60;;;;;;6007074;23;95518;-72
2022/01/27 10:50:01;;;;;;;15.80;4.60;;;10.90;83.70;;;;;;5982702;23;96491;-72
2022/01/27 10:55:10;;;;;;;13.73;4.15;;;10.90;83.60;;;;;;6007865;23;92525;-72
2022/01/27 10:57:37;;;;;;;12.95;3.88;;;10.90;83.40;;;;;;5983101;23;94064;-72
2022/01/27 11:00:14;;;;;;;11.35;4.25;;;11.00;83.30;;;;;;5983374;23;92626;-72
2022/01/27 11:02:58;;;;;;;16.20;4.38;;;11.00;83.10;;;;;;6008311;23;92365;-72
2022/01/27 11:05:28;;;;;;;13.88;4.38;;;11.10;82.90;;;;;;6008941;23;91642;-72
2022/01/27 11:07:57;;;;;;;14.98;4.32;;;11.10;82.60;;;;;;6008263;23;93610;-73
2022/01/27 11:10:26;;;;;;;12.48;3.90;;;11.20;82.90;;;;;;6008481;23;92465;-72
2022/01/27 11:12:53;;;;;;;14.38;3.72;;;11.20;82.30;;;;;;6006884;23;94747;-72
2022/01/27 11:15:21;;;;;;;9.40;3.63;;;11.20;82.20;;;;;;6008445;23;92368;-72
2022/01/27 11:17:49;;;;;;;13.82;4.40;;;11.20;82.30;;;;;;6008074;23;92899;-68
2022/01/27 11:20:49;;;;;;;11.32;3.92;;;11.20;82.30;;;;;;5982390;23;94178;-68
2022/01/27 11:25:52;;;;;;;12.75;4.13;;;11.30;82.20;;;;;;6008280;23;92354;-68
2022/01/27 11:28:21;;;;;;;11.25;3.42;;;11.30;82.00;;;;;;6008229;23;92929;-68
2022/01/27 11:30:56;;;;;;;10.00;4.18;;;11.30;81.90;;;;;;6008001;23;93821;-68
2022/01/27 11:33:34;;;;;;;10.98;4.07;;;11.30;81.80;;;;;;6008761;23;92721;-68
2022/01/27 11:36:16;;;;;;;12.05;4.28;;;11.30;81.60;;;;;;5982530;23;92479;-68
2022/01/27 11:38:46;;;;;;;14.57;3.92;;;11.30;81.90;;;;;;6006392;23;96388;-68
2022/01/27 11:41:37;;;;;;;13.88;3.70;;;11.30;82.50;;;;;;5982272;23;98582;-68
2022/01/27 11:44:25;;;;;;;11.35;3.65;;;11.50;81.90;;;;;;6007996;23;92337;-68
2022/01/27 11:47:11;;;;;;;16.85;3.95;;;11.60;81.80;;;;;;5982976;23;92450;-68
2022/01/27 11:52:34;;;;;;;14.75;3.83;;;11.60;81.10;;;;;;5982487;23;93920;-67
2022/01/27 11:55:23;;;;;;;13.13;4.00;;;11.60;80.90;;;;;;6007874;23;92398;-67
2022/01/27 11:58:14;;;;;;;14.57;3.97;;;11.70;80.60;;;;;;6008548;23;91741;-68
2022/01/27 12:01:06;;;;;;;12.80;4.07;;;11.80;80.40;;;;;;5994962;23;93015;-67
2022/01/27 12:03:34;;;;;;;12.40;3.13;;;11.70;80.10;;;;;;6008328;23;92775;-67
2022/01/27 12:06:34;;;;;;;10.00;4.05;;;11.70;80.20;;;;;;6006251;23;94824;-67
2022/01/27 12:09:19;;;;;;;18.05;4.13;;;11.70;79.80;;;;;;5956701;23;92628;-68
2022/01/27 12:11:58;;;;;;;11.73;4.28;;;11.70;79.70;;;;;;6008103;23;92928;-67
2022/01/27 12:14:49;;;;;;;16.73;3.40;;;11.60;80.00;;;;;;6007961;23;96397;-67
2022/01/27 12:17:20;;;;;;;11.80;2.97;;;11.70;79.90;;;;;;5993013;23;92548;-68
2022/01/27 12:19:52;;;;;;;11.25;3.25;;;11.80;79.70;;;;;;6008333;23;92521;-68
2022/01/27 12:22:20;;;;;;;15.05;3.58;;;11.80;79.30;;;;;;6006538;23;92945;-68
2022/01/27 12:25:01;;;;;;;16.00;3.40;;;11.90;78.80;;;;;;6008423;23;92838;-68
2022/01/27 12:27:30;;;;;;;13.57;3.13;;;12.00;78.60;;;;;;6008280;23;92407;-68
2022/01/27 12:30:16;;;;;;;14.73;3.85;;;12.00;78.20;;;;;;6006511;23;94813;-68
2022/01/27 12:32:43;;;;;;;16.63;3.83;;;12.10;78.20;;;;;;6006702;23;95463;-68
2022/01/27 12:35:16;;;;;;;15.00;3.13;;;12.10;77.70;;;;;;6006062;23;95094;-68
2022/01/27 12:37:46;;;;;;;13.05;3.17;;;12.10;77.60;;;;;;6008409;23;92455;-68
2022/01/27 12:40:19;;;;;;;13.93;3.40;;;12.10;77.60;;;;;;6006458;23;92466;-69
2022/01/27 12:42:58;;;;;;;10.30;3.13;;;12.10;77.40;;;;;;6007951;23;94103;-69
2022/01/27 12:45:28;;;;;;;14.57;3.83;;;12.00;77.60;;;;;;6007869;23;92399;-66
2022/01/27 12:47:57;;;;;;;17.75;3.90;;;11.90;77.90;;;;;;6007823;23;92400;-68
2022/01/27 12:50:25;;;;;;;11.50;2.97;;;11.80;78.00;;;;;;6007656;23;100895;-68
2022/01/27 12:52:58;;;;;;;17.50;3.67;;;11.80;78.30;;;;;;6007972;23;92914;-68
2022/01/27 12:55:33;;;;;;;17.45;3.80;;;11.80;78.40;;;;;;6006288;23;94214;-69
2022/01/27 12:58:09;;;;;;;12.95;2.88;;;11.80;78.70;;;;;;6004696;23;94981;-68
2022/01/27 13:00:43;;;;;;;13.52;2.97;;;11.80;78.50;;;;;;6007577;23;92490;-68
2022/01/27 13:03:11;;;;;;;12.43;3.22;;;11.80;78.20;;;;;;6007625;23;93097;-68
2022/01/27 13:05:40;;;;;;;11.88;3.00;;;11.70;77.40;;;;;;6007333;23;92637;-68
2022/01/27 13:08:10;;;;;;;15.80;3.80;;;11.70;77.50;;;;;;6007629;23;92830;-68
2022/01/27 13:10:44;;;;;;;14.23;3.42;;;11.60;77.50;;;;;;6008086;23;92701;-68
2022/01/27 13:13:18;;;;;;;15.03;2.93;;;11.60;77.80;;;;;;6007373;23;92969;-68
2022/01/27 13:15:45;;;;;;;13.98;2.85;;;11.70;77.90;;;;;;6008632;23;92776;-68
2022/01/27 13:18:25;;;;;;;14.13;2.80;;;11.70;77.80;;;;;;6007781;23;92391;-68
2022/01/27 13:20:56;;;;;;;10.73;2.85;;;11.70;77.40;;;;;;6008090;23;92303;-68
2022/01/27 13:26:01;;;;;;;12.18;2.53;;;11.70;77.50;;;;;;6007463;23;99911;-68
2022/01/27 13:28:39;;;;;;;11.55;2.70;;;11.80;77.50;;;;;;5982777;23;92728;-68
2022/01/27 13:31:09;;;;;;;13.20;3.05;;;11.80;77.00;;;;;;5982041;23;92437;-68
2022/01/27 13:33:41;;;;;;;12.75;2.78;;;11.80;77.20;;;;;;6007668;23;92982;-68
2022/01/27 13:36:17;;;;;;;10.63;3.10;;;11.80;77.20;;;;;;6007486;23;93277;-68
2022/01/27 13:41:37;;;;;;;12.25;3.33;;;11.90;76.50;;;;;;6008183;23;91711;-68
2022/01/27 13:44:09;;;;;;;13.35;3.25;;;11.90;76.30;;;;;;6007233;23;93123;-68
2022/01/27 13:46:55;;;;;;;18.40;3.10;;;11.80;75.90;;;;;;5982042;23;93975;-69
2022/01/27 13:49:34;;;;;;;13.18;3.35;;;11.80;75.70;;;;;;6006089;23;94760;-69